createdAt,value
2023-03-26T00:01:15.054Z,32.00
2023-03-26T00:03:42.921Z,33.00
2023-03-26T00:06:16.486Z,30.30
2023-03-26T00:08:45.919Z,26.80
2023-03-26T00:11:15.563Z,25.60
2023-03-26T00:13:43.728Z,24.40
2023-03-26T00:16:12.463Z,24.10
2023-03-26T00:18:40.014Z,24.00
2023-03-26T00:21:07.971Z,23.10
2023-03-26T00:23:36.068Z,20.70
2023-03-26T00:26:04.462Z,20.10
2023-03-26T00:28:31.375Z,28.20
2023-03-26T00:31:03.891Z,11.90
2023-03-26T00:33:31.614Z,9.70
2023-03-26T00:36:01.930Z,7.50
2023-03-26T00:38:30.516Z,10.00
2023-03-26T00:41:00.669Z,6.30
2023-03-26T00:43:27.385Z,5.60
2023-03-26T00:45:55.646Z,4.30
2023-03-26T00:48:31.562Z,6.70
2023-03-26T00:51:06.545Z,7.30
2023-03-26T00:53:33.209Z,6.20
2023-03-26T00:55:59.796Z,4.70
2023-03-26T00:58:27.547Z,4.50
2023-03-26T01:00:57.422Z,5.50
2023-03-26T01:03:28.090Z,4.40
2023-03-26T01:06:00.999Z,4.40
2023-03-26T01:08:44.967Z,5.00
2023-03-26T01:11:19.675Z,5.70
2023-03-26T01:14:06.703Z,5.00
2023-03-26T01:16:36.641Z,5.10
2023-03-26T01:19:09.040Z,6.10
2023-03-26T01:21:36.304Z,7.70
2023-03-26T01:24:05.219Z,5.00
2023-03-26T01:26:43.591Z,8.80
2023-03-26T01:29:43.084Z,5.90
2023-03-26T01:32:34.020Z,6.20
2023-03-26T01:35:08.284Z,6.60
2023-03-26T01:37:37.597Z,5.70
2023-03-26T01:40:26.440Z,7.10
2023-03-26T01:43:02.236Z,5.50
2023-03-26T01:45:34.687Z,7.10
2023-03-26T01:48:01.835Z,5.10
2023-03-26T01:50:28.830Z,6.20
2023-03-26T01:52:55.321Z,6.40
2023-03-26T01:55:27.180Z,6.40
2023-03-26T01:58:12.559Z,5.30
2023-03-26T02:01:02.613Z,6.80
2023-03-26T02:03:41.940Z,7.80
2023-03-26T02:06:17.237Z,6.70
2023-03-26T02:09:09.155Z,7.20
2023-03-26T02:11:38.500Z,6.00
2023-03-26T02:14:07.503Z,6.50
2023-03-26T02:16:34.687Z,6.90
2023-03-26T02:19:01.715Z,17.40
2023-03-26T02:21:28.903Z,13.50
2023-03-26T02:23:58.118Z,12.30
2023-03-26T02:26:25.143Z,18.20
2023-03-26T02:28:52.061Z,13.40
2023-03-26T02:31:18.570Z,10.70
2023-03-26T02:33:45.201Z,14.80
2023-03-26T02:36:12.014Z,11.80
2023-03-26T02:38:38.597Z,11.00
2023-03-26T02:41:05.829Z,8.70
2023-03-26T02:43:32.659Z,9.30
2023-03-26T02:45:59.325Z,9.80
2023-03-26T02:48:26.210Z,10.60
2023-03-26T02:50:53.159Z,9.60
2023-03-26T02:53:21.496Z,14.00
2023-03-26T02:55:48.403Z,11.40
2023-03-26T02:58:15.229Z,9.20
2023-03-26T03:00:41.712Z,11.20
2023-03-26T03:03:08.369Z,16.90
2023-03-26T03:05:35.911Z,14.40
2023-03-26T03:08:02.581Z,11.70
2023-03-26T03:10:32.866Z,11.90
2023-03-26T03:12:59.944Z,11.40
2023-03-26T03:15:26.938Z,13.50
2023-03-26T03:17:53.789Z,13.00
2023-03-26T03:20:20.337Z,13.80
2023-03-26T03:22:46.883Z,11.70
2023-03-26T03:25:13.936Z,10.90
2023-03-26T03:27:41.944Z,11.20
2023-03-26T03:30:11.092Z,13.00
2023-03-26T03:32:38.333Z,14.00
2023-03-26T03:35:06.177Z,11.50
2023-03-26T03:37:33.012Z,9.00
2023-03-26T03:39:59.718Z,8.60
2023-03-26T03:42:26.217Z,9.60
2023-03-26T03:44:52.930Z,11.30
2023-03-26T03:47:19.409Z,9.20
2023-03-26T03:49:45.947Z,11.00
2023-03-26T03:52:12.901Z,14.10
2023-03-26T03:54:39.613Z,12.50
2023-03-26T03:57:06.430Z,12.80
2023-03-26T03:59:32.965Z,11.80
2023-03-26T04:01:59.743Z,12.70
2023-03-26T04:04:26.611Z,16.20
2023-03-26T04:06:53.302Z,10.80
2023-03-26T04:09:19.954Z,13.80
2023-03-26T04:11:48.445Z,14.70
2023-03-26T04:14:14.979Z,12.20
2023-03-26T04:16:41.527Z,10.30
2023-03-26T04:19:08.263Z,8.50
2023-03-26T04:21:35.183Z,8.10
2023-03-26T04:24:02.010Z,7.30
2023-03-26T04:26:28.558Z,7.90
2023-03-26T04:29:00.167Z,6.60
2023-03-26T04:31:28.298Z,7.20
2023-03-26T04:33:58.810Z,4.60
2023-03-26T04:36:30.729Z,4.90
2023-03-26T04:38:58.458Z,4.50
2023-03-26T04:41:25.257Z,4.90
2023-03-26T04:43:56.002Z,6.10
2023-03-26T04:46:24.063Z,7.50
2023-03-26T04:48:52.141Z,5.70
2023-03-26T04:51:23.500Z,7.20
2023-03-26T04:56:34.608Z,5.60
2023-03-26T04:59:02.085Z,6.20
2023-03-26T05:01:29.036Z,5.90
2023-03-26T05:03:55.741Z,4.20
2023-03-26T05:06:22.745Z,4.50
2023-03-26T05:08:49.397Z,5.30
2023-03-26T05:11:15.820Z,5.10
2023-03-26T05:13:46.064Z,6.40
2023-03-26T05:16:13.505Z,3.90
2023-03-26T05:18:40.080Z,3.80
2023-03-26T05:21:06.817Z,4.80
2023-03-26T05:23:33.504Z,4.70
2023-03-26T05:26:00.196Z,5.60
2023-03-26T05:28:26.643Z,4.10
2023-03-26T05:30:54.431Z,5.60
2023-03-26T05:33:23.315Z,7.60
2023-03-26T05:36:06.008Z,6.90
2023-03-26T05:38:33.293Z,5.60
2023-03-26T05:41:06.137Z,5.20
2023-03-26T05:43:33.562Z,4.10
2023-03-26T05:46:00.396Z,3.30
2023-03-26T05:48:27.429Z,3.90
2023-03-26T05:50:57.030Z,6.30
2023-03-26T05:53:26.176Z,6.00
2023-03-26T05:55:53.718Z,4.00
2023-03-26T05:58:20.364Z,4.50
2023-03-26T06:00:47.110Z,3.70
2023-03-26T06:03:13.652Z,4.50
2023-03-26T06:05:40.475Z,3.00
2023-03-26T06:08:07.324Z,6.30
2023-03-26T06:10:33.843Z,8.40
2023-03-26T06:13:00.477Z,6.70
2023-03-26T06:15:28.671Z,3.90
2023-03-26T06:17:55.589Z,3.80
2023-03-26T06:20:22.247Z,4.80
2023-03-26T06:22:48.722Z,3.50
2023-03-26T06:25:15.273Z,3.10
2023-03-26T06:27:41.918Z,5.90
2023-03-26T06:30:09.065Z,5.90
2023-03-26T06:32:35.544Z,5.30
2023-03-26T06:35:02.129Z,4.80
2023-03-26T06:37:28.926Z,5.00
2023-03-26T06:39:55.368Z,2.60
2023-03-26T06:42:22.490Z,3.90
2023-03-26T06:45:09.688Z,4.40
2023-03-26T06:47:36.256Z,4.90
2023-03-26T06:50:02.798Z,6.00
2023-03-26T06:52:29.407Z,4.30
2023-03-26T06:54:56.028Z,4.60
2023-03-26T06:57:22.500Z,3.70
2023-03-26T06:59:48.969Z,3.10
2023-03-26T07:02:15.486Z,4.20
2023-03-26T07:04:41.915Z,4.00
2023-03-26T07:07:08.712Z,5.80
2023-03-26T07:09:35.220Z,3.40
2023-03-26T07:12:01.883Z,3.10
2023-03-26T07:14:28.755Z,3.60
2023-03-26T07:16:55.393Z,4.30
2023-03-26T07:19:21.900Z,4.90
2023-03-26T07:21:49.309Z,5.00
2023-03-26T07:24:16.284Z,4.50
2023-03-26T07:26:50.553Z,3.90
2023-03-26T07:29:26.250Z,3.60
2023-03-26T07:32:11.682Z,5.50
2023-03-26T07:34:51.437Z,4.00
2023-03-26T07:37:46.001Z,3.30
2023-03-26T07:40:37.021Z,5.30
2023-03-26T07:45:48.973Z,3.70
2023-03-26T07:48:19.293Z,2.50
2023-03-26T07:50:46.669Z,4.10
2023-03-26T07:53:14.311Z,7.50
2023-03-26T07:55:52.645Z,3.80
2023-03-26T07:58:41.194Z,7.60
2023-03-26T08:01:39.517Z,3.40
2023-03-26T08:04:23.747Z,3.20
2023-03-26T08:07:24.174Z,4.30
2023-03-26T08:10:06.428Z,3.80
2023-03-26T08:12:47.010Z,3.00
2023-03-26T08:15:19.630Z,4.10
2023-03-26T08:17:54.183Z,2.80
2023-03-26T08:20:24.215Z,4.10
2023-03-26T08:23:01.842Z,5.80
2023-03-26T08:25:31.460Z,5.50
2023-03-26T08:28:09.279Z,3.00
2023-03-26T08:30:35.944Z,4.40
2023-03-26T08:33:12.567Z,3.70
2023-03-26T08:35:40.144Z,3.70
2023-03-26T08:38:06.615Z,3.00
2023-03-26T08:41:05.527Z,3.10
2023-03-26T08:43:56.846Z,4.20
2023-03-26T08:49:36.421Z,3.30
2023-03-26T08:52:21.006Z,3.90
2023-03-26T08:55:01.770Z,3.50
2023-03-26T08:57:59.761Z,3.00
2023-03-26T09:00:50.142Z,2.90
2023-03-26T09:03:35.515Z,2.00
2023-03-26T09:06:13.134Z,3.90
2023-03-26T09:09:19.064Z,4.00
2023-03-26T09:11:52.027Z,2.80
2023-03-26T09:14:33.921Z,4.90
2023-03-26T09:17:09.669Z,4.40
2023-03-26T09:20:10.520Z,10.10
2023-03-26T09:23:01.362Z,4.60
2023-03-26T09:25:46.314Z,3.90
2023-03-26T09:28:50.377Z,3.70
2023-03-26T09:31:45.265Z,3.70
2023-03-26T09:34:28.018Z,3.10
2023-03-26T09:37:26.003Z,2.50
2023-03-26T09:40:16.417Z,3.90
2023-03-26T09:42:55.858Z,3.80
2023-03-26T09:45:50.532Z,2.90
2023-03-26T09:48:36.305Z,3.00
2023-03-26T09:51:08.740Z,3.80
2023-03-26T09:54:22.440Z,6.20
2023-03-26T09:57:10.240Z,3.00
2023-03-26T10:00:02.227Z,4.20
2023-03-26T10:02:47.994Z,3.60
2023-03-26T10:05:29.693Z,2.90
2023-03-26T10:08:23.471Z,4.00
2023-03-26T10:10:55.933Z,3.70
2023-03-26T10:13:25.648Z,3.10
2023-03-26T10:16:13.896Z,3.50
2023-03-26T10:18:56.048Z,2.80
2023-03-26T10:21:51.335Z,1.50
2023-03-26T10:24:24.473Z,1.90
2023-03-26T10:27:10.004Z,4.40
2023-03-26T10:29:57.683Z,2.70
2023-03-26T10:32:50.994Z,3.20
2023-03-26T10:35:21.987Z,2.40
2023-03-26T10:38:13.094Z,2.10
2023-03-26T10:41:02.174Z,3.70
2023-03-26T10:44:07.354Z,2.70
2023-03-26T10:46:54.171Z,2.80
2023-03-26T10:50:00.751Z,6.70
2023-03-26T10:52:40.407Z,1.70
2023-03-26T10:55:26.671Z,2.70
2023-03-26T10:57:56.509Z,3.80
2023-03-26T11:00:25.550Z,3.20
2023-03-26T11:03:01.654Z,6.20
2023-03-26T11:05:47.820Z,5.10
2023-03-26T11:08:50.372Z,3.30
2023-03-26T11:11:32.663Z,3.30
2023-03-26T11:14:18.994Z,4.00
2023-03-26T11:17:39.510Z,4.90
2023-03-26T11:20:15.782Z,2.60
2023-03-26T11:22:59.367Z,2.20
2023-03-26T11:25:40.423Z,2.10
2023-03-26T11:30:46.409Z,2.20
2023-03-26T11:33:22.940Z,3.00
2023-03-26T11:35:54.032Z,3.20
2023-03-26T11:38:31.912Z,3.80
2023-03-26T11:41:01.269Z,3.50
2023-03-26T11:43:36.284Z,1.90
2023-03-26T11:46:14.526Z,2.20
2023-03-26T11:48:48.310Z,3.50
2023-03-26T11:51:23.775Z,4.20
2023-03-26T11:53:50.322Z,4.90
2023-03-26T11:56:22.795Z,4.20
2023-03-26T11:59:04.482Z,9.80
2023-03-26T12:01:49.876Z,3.70
2023-03-26T12:04:21.153Z,3.50
2023-03-26T12:07:06.906Z,1.70
2023-03-26T12:09:33.442Z,2.10
2023-03-26T12:12:03.908Z,1.60
2023-03-26T12:14:34.558Z,2.30
2023-03-26T12:17:07.612Z,2.00
2023-03-26T12:19:40.967Z,4.20
2023-03-26T12:22:34.724Z,1.70
2023-03-26T12:25:03.029Z,4.10
2023-03-26T12:27:29.576Z,4.00
2023-03-26T12:30:09.171Z,1.70
2023-03-26T12:32:46.127Z,3.10
2023-03-26T12:35:26.551Z,4.60
2023-03-26T12:37:54.776Z,4.20
2023-03-26T12:40:35.451Z,4.50
2023-03-26T12:44:46.871Z,1.60
2023-03-26T12:47:59.418Z,1.80
2023-03-26T12:48:43.741Z,2.80
2023-03-26T12:51:38.545Z,2.20
2023-03-26T12:54:29.978Z,2.90
2023-03-26T12:57:16.990Z,3.00
2023-03-26T13:00:21.555Z,3.50
2023-03-26T13:03:15.449Z,4.00
2023-03-26T13:05:56.209Z,1.90
2023-03-26T13:08:53.485Z,5.40
2023-03-26T13:11:41.491Z,6.50
2023-03-26T13:14:44.836Z,5.20
2023-03-26T13:17:31.648Z,8.10
2023-03-26T13:20:33.432Z,3.70
2023-03-26T13:23:20.407Z,3.50
2023-03-26T13:26:08.621Z,3.50
2023-03-26T13:28:46.812Z,3.40
2023-03-26T13:31:31.561Z,4.70
2023-03-26T13:34:13.457Z,10.70
2023-03-26T13:37:03.914Z,4.10
2023-03-26T13:39:49.502Z,3.10
2023-03-26T13:42:22.747Z,4.80
2023-03-26T13:45:08.201Z,4.50
2023-03-26T13:47:39.300Z,2.80
2023-03-26T13:50:15.360Z,3.50
2023-03-26T13:52:48.749Z,4.00
2023-03-26T13:55:33.706Z,2.10
2023-03-26T13:58:16.846Z,2.30
2023-03-26T14:01:15.161Z,3.90
2023-03-26T14:04:00.268Z,2.60
2023-03-26T14:06:35.691Z,2.80
2023-03-26T14:09:22.761Z,3.60
2023-03-26T14:11:55.547Z,3.00
2023-03-26T14:14:43.629Z,2.10
2023-03-26T14:17:31.317Z,2.70
2023-03-26T14:20:35.510Z,2.50
2023-03-26T14:23:23.342Z,2.90
2023-03-26T14:26:25.649Z,1.60
2023-03-26T14:29:29.235Z,4.80
2023-03-26T14:32:24.783Z,5.10
2023-03-26T14:34:51.374Z,2.60
2023-03-26T14:37:43.141Z,2.50
2023-03-26T14:40:19.026Z,3.00
2023-03-26T14:42:56.378Z,2.10
2023-03-26T14:45:39.853Z,2.40
2023-03-26T14:48:30.625Z,2.90
2023-03-26T14:51:26.818Z,2.50
2023-03-26T14:54:07.934Z,3.00
2023-03-26T14:57:05.845Z,3.80
2023-03-26T15:00:17.283Z,2.20
2023-03-26T15:05:56.449Z,3.70
2023-03-26T15:08:50.868Z,4.40
2023-03-26T15:11:23.010Z,3.60
2023-03-26T15:14:02.922Z,4.00
2023-03-26T15:16:50.656Z,2.60
2023-03-26T15:19:46.386Z,3.00
2023-03-26T15:22:44.613Z,3.20
2023-03-26T15:25:45.687Z,4.50
2023-03-26T15:28:32.848Z,2.70
2023-03-26T15:31:24.294Z,3.40
2023-03-26T15:34:03.279Z,2.80
2023-03-26T15:37:04.279Z,3.30
2023-03-26T15:39:33.680Z,4.70
2023-03-26T15:42:19.271Z,3.60
2023-03-26T15:44:58.716Z,3.00
2023-03-26T15:47:52.040Z,4.50
2023-03-26T15:50:36.338Z,4.60
2023-03-26T15:53:30.222Z,3.90
2023-03-26T15:56:07.714Z,5.10
2023-03-26T15:58:46.452Z,3.40
2023-03-26T16:01:29.857Z,3.80
2023-03-26T16:04:36.149Z,4.60
2023-03-26T16:07:13.391Z,4.30
2023-03-26T16:10:16.787Z,5.20
2023-03-26T16:12:58.316Z,5.40
2023-03-26T16:15:29.070Z,6.00
2023-03-26T16:18:17.691Z,4.70
2023-03-26T16:20:54.944Z,7.70
2023-03-26T16:23:57.501Z,9.40
2023-03-26T16:26:44.688Z,7.70
2023-03-26T16:29:14.920Z,6.50
2023-03-26T16:32:10.139Z,7.10
2023-03-26T16:34:58.870Z,7.50
2023-03-26T16:37:48.267Z,7.50
2023-03-26T16:40:17.871Z,6.50
2023-03-26T16:43:13.908Z,7.00
2023-03-26T16:46:03.379Z,6.30
2023-03-26T16:48:45.865Z,6.30
2023-03-26T16:51:26.361Z,7.50
2023-03-26T16:54:08.465Z,8.60
2023-03-26T16:56:44.225Z,7.70
2023-03-26T16:59:32.994Z,11.20
2023-03-26T17:02:12.652Z,8.30
2023-03-26T17:04:44.300Z,9.50
2023-03-26T17:07:25.162Z,15.30
2023-03-26T17:09:56.284Z,6.50
2023-03-26T17:12:30.127Z,12.20
2023-03-26T17:15:41.138Z,11.50
2023-03-26T17:18:23.558Z,16.40
2023-03-26T17:21:25.607Z,39.00
2023-03-26T17:24:15.241Z,38.20
2023-03-26T17:27:07.707Z,36.80
2023-03-26T17:30:00.508Z,46.40
2023-03-26T17:32:56.531Z,62.70
2023-03-26T17:35:37.101Z,76.20
2023-03-26T17:38:04.437Z,67.90
2023-03-26T17:40:46.925Z,62.80
2023-03-26T17:43:46.074Z,69.40
2023-03-26T17:46:35.998Z,58.90
2023-03-26T17:49:02.489Z,77.00
2023-03-26T17:51:47.778Z,85.00
2023-03-26T17:54:33.203Z,120.50
2023-03-26T17:57:19.583Z,105.60
2023-03-26T17:59:47.968Z,70.50
2023-03-26T18:02:22.261Z,76.90
2023-03-26T18:04:53.593Z,83.40
2023-03-26T18:07:50.619Z,77.40
2023-03-26T18:10:39.195Z,72.40
2023-03-26T18:13:17.033Z,69.10
2023-03-26T18:15:54.418Z,107.20
2023-03-26T18:18:35.110Z,95.20
2023-03-26T18:21:05.818Z,91.00
2023-03-26T18:23:45.784Z,77.30
2023-03-26T18:26:16.360Z,97.50
2023-03-26T18:28:49.106Z,90.40
2023-03-26T18:31:22.646Z,93.50
2023-03-26T18:33:54.945Z,95.50
2023-03-26T18:36:24.719Z,101.00
2023-03-26T18:38:58.024Z,111.60
2023-03-26T18:41:37.989Z,115.60
2023-03-26T18:44:06.490Z,124.20
2023-03-26T18:46:34.187Z,129.30
2023-03-26T18:49:01.841Z,96.70
2023-03-26T18:51:30.700Z,71.90
2023-03-26T18:54:02.691Z,83.00
2023-03-26T18:56:31.078Z,88.00
2023-03-26T18:58:59.871Z,86.90
2023-03-26T19:01:33.104Z,93.40
2023-03-26T19:04:03.762Z,82.90
2023-03-26T19:06:33.369Z,91.40
2023-03-26T19:08:59.975Z,76.90
2023-03-26T19:11:28.157Z,112.30
2023-03-26T19:14:07.914Z,109.90
2023-03-26T19:16:34.971Z,95.10
2023-03-26T19:19:06.374Z,110.00
2023-03-26T19:24:01.762Z,100.20
2023-03-26T19:26:28.736Z,60.30
2023-03-26T19:28:56.404Z,55.30
2023-03-26T19:31:26.358Z,58.70
2023-03-26T19:34:11.605Z,46.30
2023-03-26T19:36:54.245Z,58.60
2023-03-26T19:39:34.701Z,74.30
2023-03-26T19:42:05.563Z,82.20
2023-03-26T19:44:36.704Z,92.50
2023-03-26T19:47:07.750Z,74.80
2023-03-26T19:52:20.301Z,69.20
2023-03-26T19:55:00.251Z,67.50
2023-03-26T19:57:31.963Z,184.90
2023-03-26T20:02:26.881Z,86.80
2023-03-26T20:04:53.720Z,70.30
2023-03-26T20:07:22.347Z,84.40
2023-03-26T20:10:01.930Z,62.20
2023-03-26T20:12:29.413Z,58.10
2023-03-26T20:14:55.837Z,60.40
2023-03-26T20:17:22.317Z,57.40
2023-03-26T20:19:48.849Z,50.80
2023-03-26T20:22:18.445Z,58.00
2023-03-26T20:24:44.887Z,68.10
2023-03-26T20:27:12.421Z,81.40
2023-03-26T20:29:38.946Z,79.30
2023-03-26T20:32:26.999Z,142.00
2023-03-26T20:34:53.802Z,229.90
2023-03-26T20:37:20.273Z,351.90
2023-03-26T20:39:46.729Z,442.30
2023-03-26T20:42:14.719Z,380.90
2023-03-26T20:44:42.824Z,223.60
2023-03-26T20:47:12.228Z,286.00
2023-03-26T20:49:38.928Z,245.90
2023-03-26T20:52:05.780Z,210.60
2023-03-26T20:54:32.316Z,216.00
2023-03-26T20:56:59.311Z,188.60
2023-03-26T20:59:27.375Z,186.70
2023-03-26T21:01:55.424Z,144.20
2023-03-26T21:04:22.070Z,117.00
2023-03-26T21:06:48.628Z,105.30
2023-03-26T21:09:17.890Z,86.10
2023-03-26T21:12:01.500Z,84.60
2023-03-26T21:14:34.496Z,88.10
2023-03-26T21:17:01.540Z,80.90
2023-03-26T21:19:28.793Z,73.20
2023-03-26T21:22:02.246Z,72.40
2023-03-26T21:24:43.498Z,74.70
2023-03-26T21:27:20.844Z,70.70
2023-03-26T21:29:47.850Z,70.10
2023-03-26T21:32:17.334Z,69.20
2023-03-26T21:34:55.741Z,62.80
2023-03-26T21:37:25.202Z,63.20
2023-03-26T21:39:52.154Z,62.80
2023-03-26T21:42:19.125Z,70.50
2023-03-26T21:44:45.977Z,67.10
2023-03-26T21:47:12.993Z,69.80
2023-03-26T21:49:39.894Z,62.20
2023-03-26T21:52:07.363Z,79.60
2023-03-26T21:54:34.400Z,74.50
2023-03-26T21:57:38.734Z,68.90
2023-03-26T22:00:12.800Z,71.00
2023-03-26T22:02:54.783Z,69.50
2023-03-26T22:06:04.118Z,73.80
2023-03-26T22:08:41.203Z,56.30
2023-03-26T22:11:09.719Z,60.40
2023-03-26T22:13:36.551Z,54.90
2023-03-26T22:16:03.238Z,58.90
2023-03-26T22:18:29.836Z,53.00
2023-03-26T22:20:57.817Z,35.10
2023-03-26T22:23:24.514Z,37.50
2023-03-26T22:25:50.994Z,31.00
2023-03-26T22:28:18.410Z,33.90
2023-03-26T22:30:45.391Z,43.70
2023-03-26T22:33:13.692Z,40.70
2023-03-26T22:35:41.855Z,42.10
2023-03-26T22:38:08.568Z,35.50
2023-03-26T22:40:35.673Z,35.90
2023-03-26T22:43:02.097Z,30.80
2023-03-26T22:45:28.667Z,27.90
2023-03-26T22:48:03.490Z,29.60
2023-03-26T22:50:32.182Z,22.20
2023-03-26T22:52:58.952Z,25.40
2023-03-26T22:55:28.719Z,26.70
2023-03-26T22:57:56.484Z,32.90
2023-03-26T23:00:23.121Z,34.60
2023-03-26T23:02:49.912Z,18.20
2023-03-26T23:05:17.790Z,16.20
2023-03-26T23:07:45.806Z,16.70
2023-03-26T23:10:12.890Z,18.40
2023-03-26T23:12:40.035Z,30.60
2023-03-26T23:15:07.497Z,33.40
2023-03-26T23:17:35.294Z,22.20
2023-03-26T23:20:07.100Z,16.50
2023-03-26T23:22:33.851Z,20.30
2023-03-26T23:25:00.589Z,17.90
2023-03-26T23:27:27.239Z,21.10
2023-03-26T23:29:53.767Z,17.50
2023-03-26T23:32:24.040Z,16.10
2023-03-26T23:34:53.658Z,15.30
2023-03-26T23:37:20.199Z,17.10
2023-03-26T23:39:46.648Z,16.00
2023-03-26T23:42:13.159Z,15.60
2023-03-26T23:44:39.634Z,16.70
2023-03-26T23:47:06.111Z,13.30
2023-03-26T23:49:32.560Z,17.00
2023-03-26T23:51:59.108Z,17.50
2023-03-26T23:54:25.607Z,15.90
2023-03-26T23:56:52.829Z,17.20
2023-03-26T23:59:19.300Z,13.40
